createdAt,value
2017-11-30T00:00:07.017Z,0
2017-11-30T00:01:07.476Z,0
2017-11-30T00:02:07.501Z,0
2017-11-30T00:03:07.032Z,0
2017-11-30T00:04:06.895Z,0
2017-11-30T00:05:07.193Z,0
2017-11-30T00:06:07.920Z,0
2017-11-30T00:07:07.153Z,0
2017-11-30T00:08:07.640Z,0
2017-11-30T00:09:07.031Z,0
2017-11-30T00:10:07.382Z,0
2017-11-30T00:11:06.687Z,0
2017-11-30T00:12:06.949Z,0
2017-11-30T00:13:07.250Z,0
2017-11-30T00:14:07.485Z,0
2017-11-30T00:15:06.764Z,0
2017-11-30T00:16:07.061Z,0
2017-11-30T00:17:07.251Z,0
2017-11-30T00:18:07.513Z,0
2017-11-30T00:19:06.659Z,0
2017-11-30T00:20:07.101Z,0
2017-11-30T00:21:07.440Z,0
2017-11-30T00:22:06.635Z,0
2017-11-30T00:23:06.915Z,0
2017-11-30T00:24:07.156Z,0
2017-11-30T00:25:07.617Z,0
2017-11-30T00:26:06.857Z,0
2017-11-30T00:27:07.154Z,0
2017-11-30T00:27:43.916Z,0
2017-11-30T00:28:44.249Z,0
2017-11-30T00:29:44.715Z,0
2017-11-30T00:30:43.971Z,0
2017-11-30T00:31:44.281Z,0
2017-11-30T00:32:44.498Z,0
2017-11-30T00:33:44.987Z,0
2017-11-30T00:34:44.236Z,0
2017-11-30T00:35:45.017Z,0
2017-11-30T00:36:44.210Z,0
2017-11-30T00:37:44.433Z,0
2017-11-30T00:38:44.895Z,0
2017-11-30T00:39:44.444Z,0
2017-11-30T00:40:44.007Z,0
2017-11-30T00:41:44.727Z,0
2017-11-30T00:42:44.026Z,0
2017-11-30T00:43:44.274Z,0
2017-11-30T00:44:44.509Z,0
2017-11-30T00:45:44.817Z,0
2017-11-30T00:46:44.158Z,0
2017-11-30T00:47:44.479Z,0
2017-11-30T00:48:44.685Z,0
2017-11-30T00:49:44.026Z,0
2017-11-30T00:50:44.255Z,0
2017-11-30T00:51:44.460Z,0
2017-11-30T00:52:44.806Z,0
2017-11-30T00:53:44.053Z,0
2017-11-30T00:54:44.612Z,0
2017-11-30T00:55:44.917Z,0
2017-11-30T00:56:44.126Z,0
2017-11-30T00:57:44.611Z,0
2017-11-30T00:58:44.867Z,0
2017-11-30T00:59:44.222Z,0
2017-11-30T01:00:44.575Z,0
2017-11-30T01:01:44.762Z,0
2017-11-30T01:02:44.022Z,0
2017-11-30T01:03:44.209Z,0
2017-11-30T01:04:44.475Z,0
2017-11-30T01:05:44.024Z,0
2017-11-30T01:06:44.255Z,0
2017-11-30T01:07:44.775Z,0
2017-11-30T01:08:43.998Z,0
2017-11-30T01:09:44.222Z,0
2017-11-30T01:10:44.476Z,0
2017-11-30T01:11:44.865Z,0
2017-11-30T01:12:44.113Z,0
2017-11-30T01:13:44.328Z,0
2017-11-30T01:14:44.566Z,0
2017-11-30T01:15:44.522Z,0
2017-11-30T01:16:44.849Z,0
2017-11-30T01:17:44.093Z,0
2017-11-30T01:18:44.499Z,0
2017-11-30T01:19:44.761Z,0
2017-11-30T01:20:44.030Z,0
2017-11-30T01:21:44.229Z,0
2017-11-30T01:22:44.395Z,0
2017-11-30T01:23:44.612Z,0
2017-11-30T01:24:44.904Z,0
2017-11-30T01:25:44.270Z,0
2017-11-30T01:26:44.731Z,0
2017-11-30T01:27:43.974Z,0
2017-11-30T01:28:44.234Z,0
2017-11-30T01:29:44.571Z,0
2017-11-30T01:30:45.025Z,0
2017-11-30T01:31:44.271Z,0
2017-11-30T01:32:44.547Z,0
2017-11-30T01:33:44.810Z,0
2017-11-30T01:34:44.062Z,0
2017-11-30T01:35:44.289Z,0
2017-11-30T01:36:44.566Z,0
2017-11-30T01:37:44.054Z,0
2017-11-30T01:38:44.409Z,0
2017-11-30T01:39:44.622Z,0
2017-11-30T01:40:44.821Z,0
2017-11-30T01:41:44.051Z,0
2017-11-30T01:42:44.803Z,0
2017-11-30T01:43:44.847Z,0
2017-11-30T01:44:44.102Z,0
2017-11-30T01:45:44.966Z,0
2017-11-30T01:46:44.302Z,0
2017-11-30T01:47:44.564Z,0
2017-11-30T01:48:44.050Z,0
2017-11-30T01:49:44.271Z,0
2017-11-30T01:50:45.460Z,0
2017-11-30T01:51:44.660Z,0
2017-11-30T01:52:43.871Z,0
2017-11-30T01:53:44.163Z,0
2017-11-30T01:54:44.368Z,0
2017-11-30T01:55:44.708Z,0
2017-11-30T01:56:44.087Z,0
2017-11-30T01:57:44.655Z,0
2017-11-30T01:58:43.894Z,0
2017-11-30T01:59:44.109Z,0
2017-11-30T02:00:44.449Z,0
2017-11-30T02:01:44.668Z,0
2017-11-30T02:02:44.025Z,0
2017-11-30T02:03:44.208Z,0
2017-11-30T02:04:44.445Z,0
2017-11-30T02:05:44.545Z,0
2017-11-30T02:06:44.678Z,0
2017-11-30T02:07:44.352Z,0
2017-11-30T02:08:43.900Z,0
2017-11-30T02:09:44.222Z,0
2017-11-30T02:10:44.677Z,0
2017-11-30T02:11:43.890Z,0
2017-11-30T02:12:44.222Z,0
2017-11-30T02:13:44.530Z,0
2017-11-30T02:14:44.930Z,0
2017-11-30T02:15:44.187Z,0
2017-11-30T02:16:44.390Z,0
2017-11-30T02:17:44.525Z,0
2017-11-30T02:18:44.164Z,0
2017-11-30T02:19:44.039Z,0
2017-11-30T02:20:44.241Z,0
2017-11-30T02:21:44.464Z,0
2017-11-30T02:22:44.724Z,0
2017-11-30T02:23:44.127Z,0
2017-11-30T02:24:44.089Z,0
2017-11-30T02:25:44.487Z,0
2017-11-30T02:26:43.905Z,0
2017-11-30T02:27:44.514Z,0
2017-11-30T02:28:44.685Z,0
2017-11-30T02:29:44.621Z,0
2017-11-30T02:30:44.518Z,0
2017-11-30T02:31:44.757Z,0
2017-11-30T02:32:43.941Z,0
2017-11-30T02:33:44.171Z,0
2017-11-30T02:34:44.496Z,0
2017-11-30T02:35:44.754Z,0
2017-11-30T02:36:43.979Z,0
2017-11-30T02:37:44.370Z,0
2017-11-30T02:38:44.661Z,0
2017-11-30T02:39:43.846Z,0
2017-11-30T02:40:44.046Z,0
2017-11-30T02:41:44.296Z,0
2017-11-30T02:42:44.608Z,0
2017-11-30T02:43:44.001Z,0
2017-11-30T02:44:44.289Z,0
2017-11-30T02:45:44.503Z,0
2017-11-30T02:46:43.868Z,0
2017-11-30T02:47:44.206Z,0
2017-11-30T02:48:44.544Z,0
2017-11-30T02:49:43.883Z,0
2017-11-30T02:50:44.121Z,0
2017-11-30T02:51:44.334Z,0
2017-11-30T02:52:44.875Z,0
2017-11-30T02:53:44.165Z,0
2017-11-30T02:54:44.445Z,0
2017-11-30T02:55:44.812Z,0
2017-11-30T02:56:44.087Z,0
2017-11-30T02:57:44.285Z,0
2017-11-30T02:58:44.328Z,0
2017-11-30T02:59:44.271Z,0
2017-11-30T03:00:44.486Z,0
2017-11-30T03:01:44.742Z,0
2017-11-30T03:02:43.985Z,0
2017-11-30T03:03:44.201Z,0
2017-11-30T03:04:44.634Z,0
2017-11-30T03:05:43.959Z,0
2017-11-30T03:06:44.254Z,0
2017-11-30T03:07:44.517Z,0
2017-11-30T03:08:44.761Z,0
2017-11-30T03:09:43.959Z,0
2017-11-30T03:10:44.171Z,0
2017-11-30T03:11:44.457Z,0
2017-11-30T03:12:44.758Z,0
2017-11-30T03:13:43.996Z,0
2017-11-30T03:14:44.285Z,0
2017-11-30T03:15:44.651Z,0
2017-11-30T03:16:44.169Z,0
2017-11-30T03:17:44.563Z,0
2017-11-30T03:18:44.800Z,0
2017-11-30T03:19:44.063Z,0
2017-11-30T03:20:44.334Z,0
2017-11-30T03:21:44.509Z,0
2017-11-30T03:22:44.656Z,0
2017-11-30T03:23:43.874Z,0
2017-11-30T03:24:44.105Z,0
2017-11-30T03:25:44.032Z,0
2017-11-30T03:26:44.208Z,0
2017-11-30T03:27:44.445Z,0
2017-11-30T03:28:44.604Z,0
2017-11-30T03:29:44.742Z,0
2017-11-30T03:30:44.005Z,0
2017-11-30T03:31:44.717Z,0
2017-11-30T03:32:43.967Z,0
2017-11-30T03:33:44.281Z,0
2017-11-30T03:34:44.464Z,0
2017-11-30T03:35:44.703Z,0
2017-11-30T03:36:43.902Z,0
2017-11-30T03:37:44.191Z,0
2017-11-30T03:38:43.825Z,0
2017-11-30T03:39:44.064Z,0
2017-11-30T03:40:44.670Z,0
2017-11-30T03:41:43.883Z,0
2017-11-30T03:42:44.153Z,0
2017-11-30T03:43:44.367Z,0
2017-11-30T03:44:44.108Z,0
2017-11-30T03:45:44.571Z,0
2017-11-30T03:46:45.070Z,0
2017-11-30T03:47:44.384Z,0
2017-11-30T03:48:44.544Z,0
2017-11-30T03:49:44.360Z,0
2017-11-30T03:50:44.302Z,0
2017-11-30T03:51:44.595Z,0
2017-11-30T03:52:44.857Z,0
2017-11-30T03:53:44.085Z,0
2017-11-30T03:54:44.494Z,0
2017-11-30T03:55:44.857Z,0
2017-11-30T03:56:44.102Z,0
2017-11-30T03:57:44.237Z,0
2017-11-30T03:58:44.412Z,0
2017-11-30T03:59:44.546Z,0
2017-11-30T04:00:44.882Z,0
2017-11-30T04:01:44.091Z,0
2017-11-30T04:02:44.334Z,0
2017-11-30T04:03:44.508Z,0
2017-11-30T04:04:44.691Z,0
2017-11-30T04:05:44.071Z,0
2017-11-30T04:06:44.309Z,0
2017-11-30T04:07:44.671Z,0
2017-11-30T04:08:43.952Z,0
2017-11-30T04:09:44.150Z,0
2017-11-30T04:10:44.346Z,0
2017-11-30T04:11:44.536Z,0
2017-11-30T04:12:44.777Z,0
2017-11-30T04:13:43.956Z,0
2017-11-30T04:14:44.192Z,0
2017-11-30T04:15:44.408Z,0
2017-11-30T04:16:44.650Z,0
2017-11-30T04:17:44.799Z,0
2017-11-30T04:18:43.993Z,0
2017-11-30T04:19:44.225Z,0
2017-11-30T04:20:44.488Z,0
2017-11-30T04:21:44.650Z,0
2017-11-30T04:22:43.938Z,0
2017-11-30T04:23:44.147Z,0
2017-11-30T04:24:44.270Z,0
2017-11-30T04:25:44.453Z,0
2017-11-30T04:26:44.621Z,0
2017-11-30T04:27:43.866Z,0
2017-11-30T04:28:44.037Z,0
2017-11-30T04:29:44.239Z,0
2017-11-30T04:30:44.438Z,0
2017-11-30T04:31:44.661Z,0
2017-11-30T04:32:44.004Z,0
2017-11-30T04:33:44.164Z,0
2017-11-30T04:34:44.418Z,0
2017-11-30T04:35:44.649Z,0
2017-11-30T04:36:44.797Z,0
2017-11-30T04:37:44.728Z,0
2017-11-30T04:38:43.964Z,0
2017-11-30T04:39:44.239Z,0
2017-11-30T04:40:44.510Z,0
2017-11-30T04:41:44.670Z,0
2017-11-30T04:42:43.948Z,0
2017-11-30T04:43:44.262Z,0
2017-11-30T04:44:44.636Z,0
2017-11-30T04:45:43.921Z,0
2017-11-30T04:46:44.075Z,0
2017-11-30T04:47:44.274Z,0
2017-11-30T04:48:44.551Z,0
2017-11-30T04:49:44.762Z,0
2017-11-30T04:50:44.103Z,0
2017-11-30T04:51:44.402Z,0
2017-11-30T04:52:44.623Z,0
2017-11-30T04:53:43.824Z,0
2017-11-30T04:54:44.050Z,0
2017-11-30T04:55:44.382Z,0
2017-11-30T04:56:54.454Z,0
2017-11-30T04:57:44.720Z,0
2017-11-30T04:58:43.844Z,0
2017-11-30T04:59:44.043Z,0
2017-11-30T05:00:44.451Z,0
2017-11-30T05:01:44.495Z,0
2017-11-30T05:02:44.807Z,0
2017-11-30T05:03:43.981Z,0
2017-11-30T05:04:44.204Z,0
2017-11-30T05:05:44.454Z,0
2017-11-30T05:06:44.637Z,0
2017-11-30T05:07:43.856Z,0
2017-11-30T05:08:44.098Z,0
2017-11-30T05:09:44.351Z,0
2017-11-30T05:10:44.598Z,0
2017-11-30T05:11:43.825Z,0
2017-11-30T05:12:44.059Z,0
2017-11-30T05:13:44.610Z,0
2017-11-30T05:14:43.858Z,0
2017-11-30T05:15:44.135Z,0
2017-11-30T05:16:44.625Z,0
2017-11-30T05:17:43.788Z,0
2017-11-30T05:18:44.048Z,0
2017-11-30T05:19:44.458Z,0
2017-11-30T05:20:44.654Z,0
2017-11-30T05:21:44.107Z,0
2017-11-30T05:22:44.551Z,0
2017-11-30T05:23:44.825Z,0
2017-11-30T05:24:44.001Z,0
2017-11-30T05:25:44.501Z,0
2017-11-30T05:26:44.818Z,0
2017-11-30T05:27:44.083Z,0
2017-11-30T05:28:44.354Z,0
2017-11-30T05:29:44.480Z,0
2017-11-30T05:30:44.764Z,0
2017-11-30T05:31:44.265Z,0
2017-11-30T05:32:44.122Z,0
2017-11-30T05:33:45.164Z,0
2017-11-30T05:34:44.508Z,0
2017-11-30T05:35:44.694Z,0
2017-11-30T05:36:43.869Z,0
2017-11-30T05:37:44.567Z,0
2017-11-30T05:38:44.930Z,0
2017-11-30T05:39:44.346Z,0
2017-11-30T05:40:44.531Z,0
2017-11-30T05:41:43.884Z,0
2017-11-30T05:42:44.276Z,0
2017-11-30T05:43:44.801Z,0
2017-11-30T05:44:44.338Z,0
2017-11-30T05:45:44.459Z,0
2017-11-30T05:46:44.795Z,0
2017-11-30T05:47:44.181Z,0
2017-11-30T05:48:44.505Z,0
2017-11-30T05:49:45.817Z,0
2017-11-30T05:50:44.523Z,0
2017-11-30T05:51:44.055Z,0
2017-11-30T05:52:44.524Z,0
2017-11-30T05:53:47.463Z,0
2017-11-30T05:54:45.335Z,0
2017-11-30T05:55:44.795Z,0
2017-11-30T05:56:44.111Z,0
2017-11-30T05:57:46.168Z,0
2017-11-30T05:58:44.484Z,0
2017-11-30T05:59:44.141Z,0
2017-11-30T06:00:44.290Z,0
2017-11-30T06:01:44.267Z,0
2017-11-30T06:02:44.637Z,0
2017-11-30T06:03:43.838Z,0
2017-11-30T06:04:44.187Z,0
2017-11-30T06:05:44.427Z,0
2017-11-30T06:06:44.727Z,0
2017-11-30T06:07:44.734Z,0
2017-11-30T06:08:43.991Z,0
2017-11-30T06:09:44.347Z,0
2017-11-30T06:10:44.598Z,0
2017-11-30T06:11:44.004Z,0
2017-11-30T06:12:44.176Z,0
2017-11-30T06:13:44.847Z,0
2017-11-30T06:14:44.345Z,0
2017-11-30T06:15:44.797Z,0
2017-11-30T06:16:43.953Z,0
2017-11-30T06:17:44.120Z,0
2017-11-30T06:18:44.339Z,0
2017-11-30T06:19:44.717Z,0
2017-11-30T06:20:43.953Z,0
2017-11-30T06:21:44.360Z,0
2017-11-30T06:22:44.469Z,0
2017-11-30T06:23:44.703Z,0
2017-11-30T06:24:44.183Z,0
2017-11-30T06:25:44.440Z,0
2017-11-30T06:26:44.710Z,0
2017-11-30T06:27:44.178Z,0
2017-11-30T06:28:44.369Z,0
2017-11-30T06:29:44.645Z,0
2017-11-30T06:30:43.915Z,0
2017-11-30T06:31:44.741Z,0
2017-11-30T06:32:44.134Z,0
2017-11-30T06:33:44.295Z,0
2017-11-30T06:34:44.863Z,0
2017-11-30T06:35:44.160Z,0
2017-11-30T06:36:44.442Z,0
2017-11-30T06:37:44.550Z,0
2017-11-30T06:38:43.790Z,0
2017-11-30T06:39:44.163Z,0
2017-11-30T06:40:44.381Z,0
2017-11-30T06:41:44.618Z,0
2017-11-30T06:42:43.940Z,0
2017-11-30T06:43:44.281Z,0
2017-11-30T06:44:44.444Z,0
2017-11-30T06:45:43.927Z,0
2017-11-30T06:46:44.772Z,0
2017-11-30T06:47:44.049Z,0
2017-11-30T06:48:44.309Z,0
2017-11-30T06:49:44.553Z,0
2017-11-30T06:50:44.200Z,0
2017-11-30T06:51:44.465Z,0
2017-11-30T06:52:44.500Z,0
2017-11-30T06:53:44.854Z,0
2017-11-30T06:54:44.842Z,0
2017-11-30T06:55:45.216Z,0
2017-11-30T06:56:44.747Z,0
2017-11-30T06:57:44.077Z,0
2017-11-30T06:58:44.365Z,0
2017-11-30T06:59:44.981Z,0
2017-11-30T07:00:44.558Z,0
2017-11-30T07:01:45.283Z,0
2017-11-30T07:02:44.995Z,0
2017-11-30T07:03:44.401Z,0
2017-11-30T07:04:44.698Z,0
2017-11-30T07:05:43.964Z,0
2017-11-30T07:06:44.521Z,0
2017-11-30T07:07:44.820Z,0
2017-11-30T07:08:44.258Z,0
2017-11-30T07:09:44.571Z,0
2017-11-30T07:10:44.208Z,0
2017-11-30T07:11:45.095Z,1
2017-11-30T07:12:44.743Z,1
2017-11-30T07:13:44.122Z,1
2017-11-30T07:14:44.633Z,1
2017-11-30T07:15:44.051Z,1
2017-11-30T07:16:44.410Z,1
2017-11-30T07:17:44.792Z,2
2017-11-30T07:18:44.047Z,2
2017-11-30T07:19:44.552Z,2
2017-11-30T07:20:44.844Z,2
2017-11-30T07:21:44.276Z,2
2017-11-30T07:22:45.332Z,2
2017-11-30T07:23:44.598Z,2
2017-11-30T07:24:44.889Z,2
2017-11-30T07:25:44.292Z,3
2017-11-30T07:26:44.642Z,3
2017-11-30T07:27:45.317Z,3
2017-11-30T07:28:44.693Z,3
2017-11-30T07:29:44.013Z,3
2017-11-30T07:30:44.270Z,3
2017-11-30T07:31:44.626Z,4
2017-11-30T07:32:44.182Z,4
2017-11-30T07:33:44.858Z,4
2017-11-30T07:34:44.315Z,4
2017-11-30T07:35:44.812Z,4
2017-11-30T07:36:44.335Z,5
2017-11-30T07:37:44.694Z,4
2017-11-30T07:38:44.185Z,4
2017-11-30T07:39:44.585Z,4
2017-11-30T07:40:44.871Z,5
2017-11-30T07:41:44.314Z,5
2017-11-30T07:42:44.692Z,5
2017-11-30T07:43:44.012Z,6
2017-11-30T07:44:44.799Z,6
2017-11-30T07:45:44.147Z,7
2017-11-30T07:46:44.477Z,7
2017-11-30T07:47:44.923Z,8
2017-11-30T07:48:44.287Z,9
2017-11-30T07:49:45.069Z,10
2017-11-30T07:50:44.409Z,10
2017-11-30T07:51:44.813Z,11
2017-11-30T07:52:44.146Z,11
2017-11-30T07:53:44.460Z,10
2017-11-30T07:54:44.972Z,10
2017-11-30T07:55:44.349Z,11
2017-11-30T07:56:44.745Z,12
2017-11-30T07:57:44.171Z,14
2017-11-30T07:58:44.489Z,15
2017-11-30T07:59:44.951Z,15
2017-11-30T08:00:44.394Z,12
2017-11-30T08:01:44.302Z,9
2017-11-30T08:02:44.979Z,11
2017-11-30T08:03:44.468Z,11
2017-11-30T08:04:45.188Z,12
2017-11-30T08:05:44.708Z,12
2017-11-30T08:06:44.153Z,12
2017-11-30T08:07:44.660Z,13
2017-11-30T08:08:44.759Z,14
2017-11-30T08:09:44.574Z,14
2017-11-30T08:10:43.494Z,12
2017-11-30T08:11:44.069Z,12
2017-11-30T08:12:43.728Z,12
2017-11-30T08:13:43.717Z,11
2017-11-30T08:14:43.611Z,11
2017-11-30T08:15:43.428Z,11
2017-11-30T08:16:44.986Z,12
2017-11-30T08:17:43.598Z,12
2017-11-30T08:18:44.965Z,12
2017-11-30T08:19:43.509Z,13
2017-11-30T08:20:44.243Z,13
2017-11-30T08:21:43.828Z,15
2017-11-30T08:22:43.377Z,15
2017-11-30T08:23:44.700Z,15
2017-11-30T08:24:43.248Z,15
2017-11-30T08:25:44.618Z,16
2017-11-30T08:26:44.100Z,18
2017-11-30T08:27:44.609Z,20
2017-11-30T08:28:44.206Z,22
2017-11-30T08:29:43.783Z,22
2017-11-30T08:30:44.177Z,23
2017-11-30T08:31:43.758Z,24
2017-11-30T08:32:43.301Z,24
2017-11-30T08:33:44.730Z,25
2017-11-30T08:34:43.493Z,26
2017-11-30T08:35:44.089Z,27
2017-11-30T08:36:44.482Z,28
2017-11-30T08:37:44.823Z,26
2017-11-30T08:38:44.267Z,27
2017-11-30T08:39:43.534Z,25
2017-11-30T08:40:44.949Z,24
2017-11-30T08:41:43.478Z,23
2017-11-30T08:42:44.099Z,23
2017-11-30T08:43:44.597Z,26
2017-11-30T08:44:44.123Z,32
2017-11-30T08:45:44.514Z,40
2017-11-30T08:46:44.127Z,39
2017-11-30T08:47:43.830Z,37
2017-11-30T08:48:43.406Z,33
2017-11-30T08:49:44.825Z,31
2017-11-30T08:50:43.497Z,32
2017-11-30T08:51:45.065Z,36
2017-11-30T08:52:44.471Z,36
2017-11-30T08:53:45.001Z,38
2017-11-30T08:54:43.638Z,37
2017-11-30T08:55:42.667Z,39
2017-11-30T08:56:42.411Z,53
2017-11-30T08:57:43.763Z,66
2017-11-30T08:58:42.779Z,61
2017-11-30T08:59:42.654Z,56
2017-11-30T09:00:42.844Z,55
2017-11-30T09:01:42.889Z,58
2017-11-30T09:02:43.073Z,64
2017-11-30T09:03:43.477Z,64
2017-11-30T09:04:42.908Z,63
2017-11-30T09:05:43.155Z,61
2017-11-30T09:06:43.069Z,62
2017-11-30T09:07:43.172Z,66
2017-11-30T09:08:43.267Z,65
2017-11-30T09:09:43.379Z,72
2017-11-30T09:10:44.763Z,71
2017-11-30T09:11:43.353Z,69
2017-11-30T09:12:44.762Z,68
2017-11-30T09:13:44.290Z,69
2017-11-30T09:14:44.866Z,77
2017-11-30T09:15:43.512Z,86
2017-11-30T09:16:44.108Z,77
2017-11-30T09:17:44.520Z,84
2017-11-30T09:18:44.984Z,91
2017-11-30T09:19:44.008Z,85
2017-11-30T09:20:44.364Z,89
2017-11-30T09:21:44.871Z,77
2017-11-30T09:22:44.272Z,78
2017-11-30T09:23:44.926Z,72
2017-11-30T09:24:44.137Z,70
2017-11-30T09:25:44.537Z,65
2017-11-30T09:26:44.020Z,53
2017-11-30T09:27:44.427Z,51
2017-11-30T09:28:44.020Z,52
2017-11-30T09:29:43.667Z,54
2017-11-30T09:30:43.220Z,66
2017-11-30T09:31:44.654Z,74
2017-11-30T09:32:43.314Z,71
2017-11-30T09:33:44.796Z,69
2017-11-30T09:34:43.399Z,67
2017-11-30T09:35:44.410Z,70
2017-11-30T09:36:44.354Z,78
2017-11-30T09:37:44.818Z,70
2017-11-30T09:38:43.401Z,58
2017-11-30T09:39:44.704Z,62
2017-11-30T09:40:44.209Z,59
2017-11-30T09:41:43.726Z,57
2017-11-30T09:42:44.095Z,57
2017-11-30T09:43:43.752Z,57
2017-11-30T09:44:44.327Z,60
2017-11-30T09:45:45.253Z,64
2017-11-30T09:46:44.627Z,69
2017-11-30T09:47:45.024Z,73
2017-11-30T09:48:43.665Z,76
2017-11-30T09:49:43.378Z,83
2017-11-30T09:50:44.101Z,87
2017-11-30T09:51:44.526Z,90
2017-11-30T09:52:43.242Z,92
2017-11-30T09:53:44.753Z,92
2017-11-30T09:54:43.380Z,77
2017-11-30T09:55:43.997Z,75
2017-11-30T09:56:44.192Z,73
2017-11-30T09:57:44.651Z,76
2017-11-30T09:58:43.932Z,69
2017-11-30T09:59:44.281Z,64
2017-11-30T10:00:44.787Z,62
2017-11-30T10:01:44.180Z,64
2017-11-30T10:02:43.860Z,66
2017-11-30T10:03:43.491Z,61
2017-11-30T10:04:44.874Z,55
2017-11-30T10:05:44.256Z,51
2017-11-30T10:06:43.841Z,51
2017-11-30T10:07:43.381Z,50
2017-11-30T10:08:44.013Z,45
2017-11-30T10:09:44.344Z,45
2017-11-30T10:10:44.029Z,42
2017-11-30T10:11:44.861Z,47
2017-11-30T10:12:44.242Z,43
2017-11-30T10:13:44.637Z,39
2017-11-30T10:14:44.983Z,36
2017-11-30T10:15:43.725Z,36
2017-11-30T10:16:43.338Z,35
2017-11-30T10:17:44.719Z,37
2017-11-30T10:19:07.695Z,36
2017-11-30T10:20:10.222Z,35
2017-11-30T10:21:09.801Z,37
2017-11-30T10:22:08.921Z,43
2017-11-30T10:23:08.279Z,41
2017-11-30T10:24:08.323Z,40
2017-11-30T10:25:07.851Z,39
2017-11-30T10:26:09.136Z,36
2017-11-30T10:27:07.743Z,38
2017-11-30T10:28:09.483Z,38
2017-11-30T10:29:09.608Z,46
2017-11-30T10:30:09.786Z,49
2017-11-30T10:31:09.423Z,50
2017-11-30T10:32:08.332Z,48
2017-11-30T10:33:08.961Z,46
2017-11-30T10:34:10.753Z,43
2017-11-30T10:35:09.475Z,45
2017-11-30T10:36:09.393Z,45
2017-11-30T10:37:09.076Z,43
2017-11-30T10:38:09.164Z,47
2017-11-30T10:39:09.488Z,45
2017-11-30T10:40:08.570Z,42
2017-11-30T10:41:08.315Z,44
2017-11-30T10:42:08.628Z,44
2017-11-30T10:43:08.783Z,46
2017-11-30T10:44:09.734Z,47
2017-11-30T10:45:08.392Z,55
2017-11-30T10:46:08.359Z,55
2017-11-30T10:47:09.333Z,55
2017-11-30T10:48:09.813Z,56
2017-11-30T10:49:09.326Z,48
2017-11-30T10:50:10.338Z,41
2017-11-30T10:51:09.042Z,38
2017-11-30T10:52:08.332Z,36
2017-11-30T10:53:08.697Z,35
2017-11-30T10:54:09.140Z,32
2017-11-30T10:55:08.686Z,33
2017-11-30T10:56:09.077Z,30
2017-11-30T10:57:09.398Z,28
2017-11-30T10:58:08.062Z,27
2017-11-30T10:59:09.692Z,25
2017-11-30T11:00:08.859Z,24
2017-11-30T11:01:09.221Z,24
2017-11-30T11:02:07.808Z,23
2017-11-30T11:03:09.229Z,22
2017-11-30T11:04:08.089Z,22
2017-11-30T11:05:08.663Z,20
2017-11-30T11:06:08.262Z,18
2017-11-30T11:07:07.832Z,17
2017-11-30T11:08:09.253Z,16
2017-11-30T11:09:08.633Z,15
2017-11-30T11:10:08.160Z,15
2017-11-30T11:11:07.760Z,15
2017-11-30T11:12:09.205Z,15
2017-11-30T11:13:08.473Z,16
2017-11-30T11:14:07.965Z,15
2017-11-30T11:15:08.372Z,15
2017-11-30T11:16:09.326Z,17
2017-11-30T11:17:08.705Z,16
2017-11-30T11:18:08.300Z,16
2017-11-30T11:19:07.795Z,17
2017-11-30T11:20:08.394Z,17
2017-11-30T11:21:09.000Z,17
2017-11-30T11:22:08.453Z,17
2017-11-30T11:23:08.093Z,17
2017-11-30T11:24:07.881Z,18
2017-11-30T11:25:08.388Z,17
2017-11-30T11:26:07.880Z,17
2017-11-30T11:27:09.321Z,17
2017-11-30T11:28:07.882Z,17
2017-11-30T11:29:08.476Z,18
2017-11-30T11:30:08.715Z,17
2017-11-30T11:31:09.171Z,17
2017-11-30T11:32:07.908Z,18
2017-11-30T11:33:09.488Z,21
2017-11-30T11:34:08.450Z,21
2017-11-30T11:35:08.339Z,18
2017-11-30T11:36:09.081Z,18
2017-11-30T11:37:08.547Z,19
2017-11-30T11:38:08.245Z,23
2017-11-30T11:39:08.805Z,24
2017-11-30T11:40:09.212Z,23
2017-11-30T11:41:07.782Z,23
2017-11-30T11:42:08.395Z,21
2017-11-30T11:43:08.872Z,19
2017-11-30T11:44:08.483Z,20
2017-11-30T11:45:08.102Z,21
2017-11-30T11:46:08.587Z,24
2017-11-30T11:47:08.254Z,24
2017-11-30T11:48:08.581Z,23
2017-11-30T11:49:08.905Z,24
2017-11-30T11:50:09.258Z,28
2017-11-30T11:51:08.824Z,29
2017-11-30T11:52:08.365Z,26
2017-11-30T11:53:07.995Z,24
2017-11-30T11:54:08.644Z,26
2017-11-30T11:55:09.095Z,26
2017-11-30T11:56:08.686Z,29
2017-11-30T11:57:09.142Z,36
2017-11-30T11:58:07.786Z,35
2017-11-30T11:59:08.397Z,37
2017-11-30T12:00:08.074Z,38
2017-11-30T12:01:08.669Z,38
2017-11-30T12:02:09.059Z,37
2017-11-30T12:03:08.893Z,37
2017-11-30T12:04:09.313Z,33
2017-11-30T12:05:08.716Z,37
2017-11-30T12:06:09.167Z,33
2017-11-30T12:07:07.997Z,33
2017-11-30T12:08:09.527Z,34
2017-11-30T12:09:08.877Z,36
2017-11-30T12:10:09.301Z,35
2017-11-30T12:11:08.660Z,32
2017-11-30T12:12:09.116Z,28
2017-11-30T12:13:09.456Z,28
2017-11-30T12:14:07.797Z,26
2017-11-30T12:15:08.298Z,29
2017-11-30T12:16:08.554Z,35
2017-11-30T12:17:08.557Z,35
2017-11-30T12:18:08.894Z,29
2017-11-30T12:19:08.397Z,28
2017-11-30T12:20:08.740Z,31
2017-11-30T12:21:08.309Z,26
2017-11-30T12:22:08.210Z,27
2017-11-30T12:23:07.810Z,27
2017-11-30T12:24:08.361Z,28
2017-11-30T12:25:07.952Z,27
2017-11-30T12:26:08.488Z,24
2017-11-30T12:27:08.118Z,26
2017-11-30T12:28:08.672Z,30
2017-11-30T12:29:08.278Z,38
2017-11-30T12:30:08.661Z,38
2017-11-30T12:31:08.203Z,35
2017-11-30T12:32:07.983Z,33
2017-11-30T12:33:09.386Z,28
2017-11-30T12:34:08.835Z,29
2017-11-30T12:35:09.285Z,30
2017-11-30T12:36:08.247Z,31
2017-11-30T12:37:07.850Z,27
2017-11-30T12:38:08.446Z,24
2017-11-30T12:39:08.877Z,23
2017-11-30T12:40:09.340Z,23
2017-11-30T12:41:08.853Z,23
2017-11-30T12:42:09.324Z,24
2017-11-30T12:43:08.731Z,29
2017-11-30T12:44:08.225Z,29
2017-11-30T12:45:07.843Z,26
2017-11-30T12:46:08.349Z,28
2017-11-30T12:47:07.870Z,30
2017-11-30T12:48:09.732Z,24
2017-11-30T12:49:09.109Z,23
2017-11-30T12:50:07.686Z,28
2017-11-30T12:51:09.198Z,26
2017-11-30T12:52:08.559Z,26
2017-11-30T12:53:08.841Z,28
2017-11-30T12:54:09.247Z,30
2017-11-30T12:55:08.813Z,31
2017-11-30T12:56:09.179Z,32
2017-11-30T12:57:35.540Z,36
2017-11-30T12:58:36.227Z,40
2017-11-30T12:59:35.042Z,42
2017-11-30T13:00:34.918Z,37
2017-11-30T13:01:35.367Z,35
2017-11-30T13:02:35.742Z,35
2017-11-30T13:03:35.680Z,35
2017-11-30T13:04:39.388Z,31
2017-11-30T13:05:35.945Z,30
2017-11-30T13:06:36.039Z,23
2017-11-30T13:07:36.465Z,21
2017-11-30T13:08:35.970Z,20
2017-11-30T13:09:35.631Z,21
2017-11-30T13:10:35.443Z,21
2017-11-30T13:11:35.783Z,20
2017-11-30T13:12:36.124Z,19
2017-11-30T13:13:35.395Z,18
2017-11-30T13:14:35.550Z,17
2017-11-30T13:15:35.451Z,18
2017-11-30T13:16:36.272Z,18
2017-11-30T13:18:02.604Z,19
2017-11-30T13:19:02.339Z,20
2017-11-30T13:20:31.547Z,19
2017-11-30T13:21:31.784Z,18
2017-11-30T13:22:32.035Z,18
2017-11-30T13:23:32.122Z,17
2017-11-30T13:24:30.674Z,17
2017-11-30T13:25:30.690Z,18
2017-11-30T13:26:30.169Z,19
2017-11-30T13:27:30.825Z,20
2017-11-30T13:30:58.234Z,29
2017-11-30T13:31:59.434Z,22
2017-11-30T13:32:59.108Z,19
2017-11-30T13:33:59.032Z,19
2017-11-30T13:34:57.801Z,18
2017-11-30T13:35:58.298Z,18
2017-11-30T13:36:58.000Z,19
2017-11-30T13:38:01.903Z,19
2017-11-30T13:38:58.633Z,19
2017-11-30T13:39:58.182Z,20
2017-11-30T13:40:58.116Z,21
2017-11-30T13:41:58.361Z,21
2017-11-30T13:42:58.223Z,27
2017-11-30T13:43:58.755Z,31
2017-11-30T13:45:00.006Z,31
2017-11-30T13:45:57.553Z,31
2017-11-30T13:46:57.969Z,34
2017-11-30T13:47:57.440Z,36
2017-11-30T13:48:57.317Z,35
2017-11-30T13:49:58.078Z,35
2017-11-30T13:50:59.038Z,32
2017-11-30T13:51:57.586Z,32
2017-11-30T13:52:58.967Z,31
2017-11-30T13:53:57.651Z,31
2017-11-30T13:55:24.856Z,30
2017-11-30T13:56:25.507Z,30
2017-11-30T13:57:25.907Z,31
2017-11-30T13:58:26.596Z,29
2017-11-30T13:59:26.360Z,28
2017-11-30T14:00:25.830Z,30
2017-11-30T14:01:26.207Z,32
2017-11-30T14:02:26.612Z,34
2017-11-30T14:03:26.340Z,31
2017-11-30T14:04:25.784Z,31
2017-11-30T14:05:26.653Z,33
2017-11-30T14:12:13.013Z,35
2017-11-30T14:13:13.459Z,36
2017-11-30T14:14:13.947Z,34
2017-11-30T14:15:40.500Z,33
2017-11-30T14:16:40.968Z,34
2017-11-30T14:17:40.716Z,33
2017-11-30T14:18:40.829Z,33
2017-11-30T14:19:41.940Z,32
2017-11-30T14:20:41.560Z,30
2017-11-30T14:21:41.906Z,28
2017-11-30T14:22:42.198Z,28
2017-11-30T14:24:32.193Z,27
2017-11-30T14:25:31.941Z,27
2017-11-30T14:26:32.588Z,27
2017-11-30T14:27:32.371Z,27
2017-11-30T14:28:33.342Z,27
2017-11-30T14:29:33.397Z,27
2017-11-30T14:30:32.575Z,27
2017-11-30T14:31:32.326Z,26
2017-11-30T14:32:33.018Z,26
2017-11-30T14:33:33.397Z,26
2017-11-30T14:34:32.267Z,25
2017-11-30T14:35:32.330Z,25
2017-11-30T14:36:32.967Z,23
2017-11-30T14:37:32.792Z,22
2017-11-30T14:38:32.725Z,21
2017-11-30T14:39:32.530Z,19
2017-11-30T14:40:32.451Z,18
2017-11-30T14:41:32.443Z,18
2017-11-30T14:42:32.555Z,17
2017-11-30T14:43:33.028Z,16